sensor_id;sensor_type;location;lat;lon;timestamp;temperature;humidity
20777;DHT22;10548;47.504;8.248;2023-08-06T00:02:27;15.60;99.90
20777;DHT22;10548;47.504;8.248;2023-08-06T00:04:54;15.70;99.90
20777;DHT22;10548;47.504;8.248;2023-08-06T00:07:21;15.70;99.90
20777;DHT22;10548;47.504;8.248;2023-08-06T00:09:48;15.50;99.90
20777;DHT22;10548;47.504;8.248;2023-08-06T00:12:15;15.40;99.90
20777;DHT22;10548;47.504;8.248;2023-08-06T00:14:42;15.40;99.90
20777;DHT22;10548;47.504;8.248;2023-08-06T00:17:10;15.40;99.90
20777;DHT22;10548;47.504;8.248;2023-08-06T00:19:37;15.20;99.90
20777;DHT22;10548;47.504;8.248;2023-08-06T00:22:04;15.10;99.90
20777;DHT22;10548;47.504;8.248;2023-08-06T00:24:31;14.90;99.90
20777;DHT22;10548;47.504;8.248;2023-08-06T00:26:58;14.80;99.90
20777;DHT22;10548;47.504;8.248;2023-08-06T00:29:25;14.50;99.90
20777;DHT22;10548;47.504;8.248;2023-08-06T00:31:53;14.30;99.90
20777;DHT22;10548;47.504;8.248;2023-08-06T00:34:20;14.30;99.90
20777;DHT22;10548;47.504;8.248;2023-08-06T00:36:47;14.40;99.90
20777;DHT22;10548;47.504;8.248;2023-08-06T00:39:14;14.30;99.90
20777;DHT22;10548;47.504;8.248;2023-08-06T00:41:42;14.30;99.90
20777;DHT22;10548;47.504;8.248;2023-08-06T00:44:09;14.30;99.90
20777;DHT22;10548;47.504;8.248;2023-08-06T00:46:36;14.30;99.90
20777;DHT22;10548;47.504;8.248;2023-08-06T00:49:04;14.30;99.90
20777;DHT22;10548;47.504;8.248;2023-08-06T00:51:32;14.40;99.90
20777;DHT22;10548;47.504;8.248;2023-08-06T00:53:59;14.50;99.90
20777;DHT22;10548;47.504;8.248;2023-08-06T00:56:27;14.40;99.90
20777;DHT22;10548;47.504;8.248;2023-08-06T00:58:54;14.50;99.90
20777;DHT22;10548;47.504;8.248;2023-08-06T01:01:21;14.60;99.90
20777;DHT22;10548;47.504;8.248;2023-08-06T01:03:49;14.60;99.90
20777;DHT22;10548;47.504;8.248;2023-08-06T01:06:19;14.50;99.90
20777;DHT22;10548;47.504;8.248;2023-08-06T01:08:58;14.40;99.90
20777;DHT22;10548;47.504;8.248;2023-08-06T01:11:44;14.50;99.90
20777;DHT22;10548;47.504;8.248;2023-08-06T01:14:30;14.50;99.90
20777;DHT22;10548;47.504;8.248;2023-08-06T01:17:01;14.70;99.90
20777;DHT22;10548;47.504;8.248;2023-08-06T01:19:29;14.80;99.90
20777;DHT22;10548;47.504;8.248;2023-08-06T01:21:56;14.90;99.90
20777;DHT22;10548;47.504;8.248;2023-08-06T01:24:24;14.90;99.90
20777;DHT22;10548;47.504;8.248;2023-08-06T01:27:10;14.90;99.90
20777;DHT22;10548;47.504;8.248;2023-08-06T01:29:46;15.00;99.90
20777;DHT22;10548;47.504;8.248;2023-08-06T01:32:14;15.10;99.90
20777;DHT22;10548;47.504;8.248;2023-08-06T01:34:43;15.20;99.90
20777;DHT22;10548;47.504;8.248;2023-08-06T01:37:12;15.10;99.90
20777;DHT22;10548;47.504;8.248;2023-08-06T01:39:42;15.10;99.90
20777;DHT22;10548;47.504;8.248;2023-08-06T01:42:09;15.20;99.90
20777;DHT22;10548;47.504;8.248;2023-08-06T01:44:36;15.00;99.90
20777;DHT22;10548;47.504;8.248;2023-08-06T01:47:04;15.00;99.90
20777;DHT22;10548;47.504;8.248;2023-08-06T01:49:32;15.20;99.90
20777;DHT22;10548;47.504;8.248;2023-08-06T01:51:59;15.20;99.90
20777;DHT22;10548;47.504;8.248;2023-08-06T01:54:27;15.20;99.90
20777;DHT22;10548;47.504;8.248;2023-08-06T01:56:55;15.30;99.90
20777;DHT22;10548;47.504;8.248;2023-08-06T01:59:22;15.30;99.90
20777;DHT22;10548;47.504;8.248;2023-08-06T02:01:49;15.30;99.90
20777;DHT22;10548;47.504;8.248;2023-08-06T02:04:17;15.30;99.90
20777;DHT22;10548;47.504;8.248;2023-08-06T02:06:44;15.40;99.90
20777;DHT22;10548;47.504;8.248;2023-08-06T02:09:11;15.40;99.90
20777;DHT22;10548;47.504;8.248;2023-08-06T02:11:38;15.30;99.90
20777;DHT22;10548;47.504;8.248;2023-08-06T02:14:05;15.30;99.90
20777;DHT22;10548;47.504;8.248;2023-08-06T02:16:32;15.10;99.90
20777;DHT22;10548;47.504;8.248;2023-08-06T02:19:01;15.10;99.90
20777;DHT22;10548;47.504;8.248;2023-08-06T02:21:29;15.10;99.90
20777;DHT22;10548;47.504;8.248;2023-08-06T02:23:56;15.10;99.90
20777;DHT22;10548;47.504;8.248;2023-08-06T02:26:23;15.10;99.90
20777;DHT22;10548;47.504;8.248;2023-08-06T02:28:50;15.10;99.90
20777;DHT22;10548;47.504;8.248;2023-08-06T02:31:17;15.20;99.90
20777;DHT22;10548;47.504;8.248;2023-08-06T02:33:44;15.30;99.90
20777;DHT22;10548;47.504;8.248;2023-08-06T02:36:11;15.30;99.90
20777;DHT22;10548;47.504;8.248;2023-08-06T02:38:38;15.20;99.90
20777;DHT22;10548;47.504;8.248;2023-08-06T02:41:05;15.20;99.90
20777;DHT22;10548;47.504;8.248;2023-08-06T02:43:32;15.30;99.90
20777;DHT22;10548;47.504;8.248;2023-08-06T02:46:00;15.30;99.90
20777;DHT22;10548;47.504;8.248;2023-08-06T02:48:28;15.20;99.90
20777;DHT22;10548;47.504;8.248;2023-08-06T02:50:59;15.30;99.90
20777;DHT22;10548;47.504;8.248;2023-08-06T02:53:28;15.30;99.90
20777;DHT22;10548;47.504;8.248;2023-08-06T02:55:57;15.30;99.90
20777;DHT22;10548;47.504;8.248;2023-08-06T02:58:33;15.30;99.90
20777;DHT22;10548;47.504;8.248;2023-08-06T03:01:12;15.30;99.90
20777;DHT22;10548;47.504;8.248;2023-08-06T03:03:45;15.20;99.90
20777;DHT22;10548;47.504;8.248;2023-08-06T03:06:19;15.30;99.90
20777;DHT22;10548;47.504;8.248;2023-08-06T03:08:50;15.30;99.90
20777;DHT22;10548;47.504;8.248;2023-08-06T03:11:17;15.40;99.90
20777;DHT22;10548;47.504;8.248;2023-08-06T03:13:46;15.30;99.90
20777;DHT22;10548;47.504;8.248;2023-08-06T03:16:14;15.30;99.90
20777;DHT22;10548;47.504;8.248;2023-08-06T03:18:41;15.30;99.90
20777;DHT22;10548;47.504;8.248;2023-08-06T03:21:09;15.30;99.90
20777;DHT22;10548;47.504;8.248;2023-08-06T03:23:37;15.30;99.90
20777;DHT22;10548;47.504;8.248;2023-08-06T03:26:05;15.40;99.90
20777;DHT22;10548;47.504;8.248;2023-08-06T03:28:33;15.30;99.90
20777;DHT22;10548;47.504;8.248;2023-08-06T03:31:01;15.20;99.90
20777;DHT22;10548;47.504;8.248;2023-08-06T03:33:40;15.30;99.90
20777;DHT22;10548;47.504;8.248;2023-08-06T03:36:12;15.20;99.90
20777;DHT22;10548;47.504;8.248;2023-08-06T03:38:39;15.20;99.90
20777;DHT22;10548;47.504;8.248;2023-08-06T03:41:08;15.10;99.90
20777;DHT22;10548;47.504;8.248;2023-08-06T03:43:35;15.10;99.90
20777;DHT22;10548;47.504;8.248;2023-08-06T03:46:06;15.00;99.90
20777;DHT22;10548;47.504;8.248;2023-08-06T03:48:34;14.50;99.90
20777;DHT22;10548;47.504;8.248;2023-08-06T03:51:01;14.20;99.90
20777;DHT22;10548;47.504;8.248;2023-08-06T03:53:29;14.00;99.90
20777;DHT22;10548;47.504;8.248;2023-08-06T04:01:02;14.00;99.90
20777;DHT22;10548;47.504;8.248;2023-08-06T04:03:39;13.40;99.90
20777;DHT22;10548;47.504;8.248;2023-08-06T04:30:59;13.50;99.90
20777;DHT22;10548;47.504;8.248;2023-08-06T04:33:28;12.90;99.90
20777;DHT22;10548;47.504;8.248;2023-08-06T04:35:58;12.80;99.90
20777;DHT22;10548;47.504;8.248;2023-08-06T04:38:26;12.80;99.90
20777;DHT22;10548;47.504;8.248;2023-08-06T05:25:15;12.90;99.90
20777;DHT22;10548;47.504;8.248;2023-08-06T05:57:14;13.00;99.90
20777;DHT22;10548;47.504;8.248;2023-08-06T06:07:04;13.60;99.90
20777;DHT22;10548;47.504;8.248;2023-08-06T06:09:31;13.60;99.90
20777;DHT22;10548;47.504;8.248;2023-08-06T06:11:58;13.60;99.90
20777;DHT22;10548;47.504;8.248;2023-08-06T06:14:26;13.70;99.90
20777;DHT22;10548;47.504;8.248;2023-08-06T06:16:53;13.70;99.90
20777;DHT22;10548;47.504;8.248;2023-08-06T06:19:20;13.70;99.90
20777;DHT22;10548;47.504;8.248;2023-08-06T06:21:47;13.70;99.90
20777;DHT22;10548;47.504;8.248;2023-08-06T06:24:14;13.80;99.90
20777;DHT22;10548;47.504;8.248;2023-08-06T06:26:41;13.80;99.90
20777;DHT22;10548;47.504;8.248;2023-08-06T06:29:08;13.90;99.90
20777;DHT22;10548;47.504;8.248;2023-08-06T06:31:35;13.80;99.90
20777;DHT22;10548;47.504;8.248;2023-08-06T06:34:03;13.90;99.90
20777;DHT22;10548;47.504;8.248;2023-08-06T06:36:30;13.90;99.90
20777;DHT22;10548;47.504;8.248;2023-08-06T06:38:57;13.90;99.90
20777;DHT22;10548;47.504;8.248;2023-08-06T06:41:24;13.90;99.90
20777;DHT22;10548;47.504;8.248;2023-08-06T06:43:56;13.90;99.90
20777;DHT22;10548;47.504;8.248;2023-08-06T06:46:26;13.90;99.90
20777;DHT22;10548;47.504;8.248;2023-08-06T06:48:53;13.80;99.90
20777;DHT22;10548;47.504;8.248;2023-08-06T06:51:20;13.70;99.90
20777;DHT22;10548;47.504;8.248;2023-08-06T06:53:47;13.70;99.90
20777;DHT22;10548;47.504;8.248;2023-08-06T06:56:14;13.70;99.90
20777;DHT22;10548;47.504;8.248;2023-08-06T06:58:42;13.60;99.90
20777;DHT22;10548;47.504;8.248;2023-08-06T07:01:09;13.70;99.90
20777;DHT22;10548;47.504;8.248;2023-08-06T07:03:37;13.70;99.90
20777;DHT22;10548;47.504;8.248;2023-08-06T07:06:04;13.70;99.90
20777;DHT22;10548;47.504;8.248;2023-08-06T07:08:32;13.80;99.90
20777;DHT22;10548;47.504;8.248;2023-08-06T07:11:04;13.80;99.90
20777;DHT22;10548;47.504;8.248;2023-08-06T07:13:33;13.90;99.90
20777;DHT22;10548;47.504;8.248;2023-08-06T07:16:01;13.90;99.90
20777;DHT22;10548;47.504;8.248;2023-08-06T07:18:28;14.00;99.90
20777;DHT22;10548;47.504;8.248;2023-08-06T07:20:56;14.00;99.90
20777;DHT22;10548;47.504;8.248;2023-08-06T07:23:24;14.10;99.90
20777;DHT22;10548;47.504;8.248;2023-08-06T07:25:52;14.00;99.90
20777;DHT22;10548;47.504;8.248;2023-08-06T07:28:19;14.00;99.90
20777;DHT22;10548;47.504;8.248;2023-08-06T07:30:47;13.90;99.90
20777;DHT22;10548;47.504;8.248;2023-08-06T07:33:14;13.70;99.90
20777;DHT22;10548;47.504;8.248;2023-08-06T07:35:41;13.70;99.90
20777;DHT22;10548;47.504;8.248;2023-08-06T07:38:10;13.70;99.90
20777;DHT22;10548;47.504;8.248;2023-08-06T07:40:38;13.80;99.90
20777;DHT22;10548;47.504;8.248;2023-08-06T07:43:05;13.70;99.90
20777;DHT22;10548;47.504;8.248;2023-08-06T07:45:34;13.70;99.90
20777;DHT22;10548;47.504;8.248;2023-08-06T07:48:02;13.60;99.90
20777;DHT22;10548;47.504;8.248;2023-08-06T07:50:29;13.50;99.90
20777;DHT22;10548;47.504;8.248;2023-08-06T07:52:56;13.30;99.90
20777;DHT22;10548;47.504;8.248;2023-08-06T07:55:23;13.20;99.90
20777;DHT22;10548;47.504;8.248;2023-08-06T07:57:52;13.10;99.90
20777;DHT22;10548;47.504;8.248;2023-08-06T08:00:19;13.00;99.90
20777;DHT22;10548;47.504;8.248;2023-08-06T08:02:46;12.90;99.90
20777;DHT22;10548;47.504;8.248;2023-08-06T08:05:13;12.80;99.90
20777;DHT22;10548;47.504;8.248;2023-08-06T08:07:41;12.70;99.90
20777;DHT22;10548;47.504;8.248;2023-08-06T08:10:08;12.70;99.90
20777;DHT22;10548;47.504;8.248;2023-08-06T08:12:35;12.70;99.90
20777;DHT22;10548;47.504;8.248;2023-08-06T08:15:03;12.70;99.90
20777;DHT22;10548;47.504;8.248;2023-08-06T08:17:30;12.70;99.90
20777;DHT22;10548;47.504;8.248;2023-08-06T08:19:57;12.80;99.90
20777;DHT22;10548;47.504;8.248;2023-08-06T08:22:24;12.80;99.90
20777;DHT22;10548;47.504;8.248;2023-08-06T08:24:52;12.70;99.90
20777;DHT22;10548;47.504;8.248;2023-08-06T08:27:19;12.80;99.90
20777;DHT22;10548;47.504;8.248;2023-08-06T08:29:46;12.80;99.90
20777;DHT22;10548;47.504;8.248;2023-08-06T08:32:13;12.70;99.90
20777;DHT22;10548;47.504;8.248;2023-08-06T08:34:40;12.80;99.90
20777;DHT22;10548;47.504;8.248;2023-08-06T08:37:07;12.80;99.90
20777;DHT22;10548;47.504;8.248;2023-08-06T08:39:34;12.90;99.90
20777;DHT22;10548;47.504;8.248;2023-08-06T08:42:02;13.00;99.90
20777;DHT22;10548;47.504;8.248;2023-08-06T08:44:31;13.10;99.90
20777;DHT22;10548;47.504;8.248;2023-08-06T08:46:59;13.10;99.90
20777;DHT22;10548;47.504;8.248;2023-08-06T08:49:27;13.20;99.90
20777;DHT22;10548;47.504;8.248;2023-08-06T08:51:56;13.30;99.90
20777;DHT22;10548;47.504;8.248;2023-08-06T08:54:24;13.40;99.90
20777;DHT22;10548;47.504;8.248;2023-08-06T08:56:52;13.40;99.90
20777;DHT22;10548;47.504;8.248;2023-08-06T08:59:19;13.40;99.90
20777;DHT22;10548;47.504;8.248;2023-08-06T09:01:48;13.50;99.90
20777;DHT22;10548;47.504;8.248;2023-08-06T09:04:19;13.50;99.90
20777;DHT22;10548;47.504;8.248;2023-08-06T09:06:50;13.60;99.90
20777;DHT22;10548;47.504;8.248;2023-08-06T09:09:28;13.60;99.90
20777;DHT22;10548;47.504;8.248;2023-08-06T09:12:00;13.60;99.90
20777;DHT22;10548;47.504;8.248;2023-08-06T09:14:29;13.70;99.90
20777;DHT22;10548;47.504;8.248;2023-08-06T09:16:56;13.70;99.90
20777;DHT22;10548;47.504;8.248;2023-08-06T09:19:24;13.70;99.90
20777;DHT22;10548;47.504;8.248;2023-08-06T09:21:55;13.70;99.90
20777;DHT22;10548;47.504;8.248;2023-08-06T09:24:23;13.70;99.90
20777;DHT22;10548;47.504;8.248;2023-08-06T09:26:50;13.80;99.90
20777;DHT22;10548;47.504;8.248;2023-08-06T09:29:17;13.80;99.90
20777;DHT22;10548;47.504;8.248;2023-08-06T09:31:46;13.80;99.90
20777;DHT22;10548;47.504;8.248;2023-08-06T09:36:53;13.70;99.90
20777;DHT22;10548;47.504;8.248;2023-08-06T09:41:56;13.60;99.90
20777;DHT22;10548;47.504;8.248;2023-08-06T09:44:25;13.50;99.90
20777;DHT22;10548;47.504;8.248;2023-08-06T09:46:58;13.50;99.90
20777;DHT22;10548;47.504;8.248;2023-08-06T09:52:20;13.40;99.90
20777;DHT22;10548;47.504;8.248;2023-08-06T09:54:47;13.40;99.90
20777;DHT22;10548;47.504;8.248;2023-08-06T09:57:15;13.40;99.90
20777;DHT22;10548;47.504;8.248;2023-08-06T09:59:43;13.40;99.90
20777;DHT22;10548;47.504;8.248;2023-08-06T10:02:13;13.30;99.90
20777;DHT22;10548;47.504;8.248;2023-08-06T10:04:44;13.30;99.90
20777;DHT22;10548;47.504;8.248;2023-08-06T10:07:21;13.30;99.90
20777;DHT22;10548;47.504;8.248;2023-08-06T10:12:17;13.30;99.90
20777;DHT22;10548;47.504;8.248;2023-08-06T10:14:47;13.20;99.90
20777;DHT22;10548;47.504;8.248;2023-08-06T10:17:16;13.30;99.90
20777;DHT22;10548;47.504;8.248;2023-08-06T10:19:44;13.40;99.90
20777;DHT22;10548;47.504;8.248;2023-08-06T10:22:13;13.40;99.90
20777;DHT22;10548;47.504;8.248;2023-08-06T10:24:58;13.40;99.90
20777;DHT22;10548;47.504;8.248;2023-08-06T10:30:30;13.40;99.90
20777;DHT22;10548;47.504;8.248;2023-08-06T10:33:03;13.40;99.90
20777;DHT22;10548;47.504;8.248;2023-08-06T10:35:42;13.30;99.90
20777;DHT22;10548;47.504;8.248;2023-08-06T10:38:22;13.40;99.90
20777;DHT22;10548;47.504;8.248;2023-08-06T10:41:01;13.40;99.90
20777;DHT22;10548;47.504;8.248;2023-08-06T10:43:31;13.50;99.90
20777;DHT22;10548;47.504;8.248;2023-08-06T10:45:59;13.50;99.90
20777;DHT22;10548;47.504;8.248;2023-08-06T10:48:46;13.50;99.90
20777;DHT22;10548;47.504;8.248;2023-08-06T10:51:14;13.60;99.90
20777;DHT22;10548;47.504;8.248;2023-08-06T10:53:45;13.60;99.90
20777;DHT22;10548;47.504;8.248;2023-08-06T10:56:20;13.70;99.90
20777;DHT22;10548;47.504;8.248;2023-08-06T11:01:23;12.80;99.90
20777;DHT22;10548;47.504;8.248;2023-08-06T11:03:51;13.90;99.90
20777;DHT22;10548;47.504;8.248;2023-08-06T11:06:21;13.90;99.90
20777;DHT22;10548;47.504;8.248;2023-08-06T11:08:53;13.90;99.90
20777;DHT22;10548;47.504;8.248;2023-08-06T11:11:23;14.00;99.90
20777;DHT22;10548;47.504;8.248;2023-08-06T11:13:51;13.90;99.90
20777;DHT22;10548;47.504;8.248;2023-08-06T11:16:23;13.90;99.90
20777;DHT22;10548;47.504;8.248;2023-08-06T11:18:52;13.90;99.90
20777;DHT22;10548;47.504;8.248;2023-08-06T11:21:21;14.00;99.90
20777;DHT22;10548;47.504;8.248;2023-08-06T11:23:49;13.90;99.90
20777;DHT22;10548;47.504;8.248;2023-08-06T11:26:22;13.80;99.90
20777;DHT22;10548;47.504;8.248;2023-08-06T11:28:50;13.80;99.90
20777;DHT22;10548;47.504;8.248;2023-08-06T11:31:21;13.80;99.90
20777;DHT22;10548;47.504;8.248;2023-08-06T11:33:55;13.60;99.90
20777;DHT22;10548;47.504;8.248;2023-08-06T11:36:33;13.70;99.90
20777;DHT22;10548;47.504;8.248;2023-08-06T11:39:00;13.70;99.90
20777;DHT22;10548;47.504;8.248;2023-08-06T11:41:29;13.70;99.90
20777;DHT22;10548;47.504;8.248;2023-08-06T11:43:58;13.60;99.90
20777;DHT22;10548;47.504;8.248;2023-08-06T11:46:25;13.70;99.90
20777;DHT22;10548;47.504;8.248;2023-08-06T11:48:57;13.70;99.90
20777;DHT22;10548;47.504;8.248;2023-08-06T11:51:25;13.70;99.90
20777;DHT22;10548;47.504;8.248;2023-08-06T11:53:56;13.80;99.90
20777;DHT22;10548;47.504;8.248;2023-08-06T11:56:27;13.90;99.90
20777;DHT22;10548;47.504;8.248;2023-08-06T11:58:55;13.90;99.90
20777;DHT22;10548;47.504;8.248;2023-08-06T12:01:22;13.90;99.90
20777;DHT22;10548;47.504;8.248;2023-08-06T12:03:50;13.90;99.90
20777;DHT22;10548;47.504;8.248;2023-08-06T12:13:39;13.90;99.90
20777;DHT22;10548;47.504;8.248;2023-08-06T12:16:06;14.10;99.90
20777;DHT22;10548;47.504;8.248;2023-08-06T12:21:01;14.10;99.90
20777;DHT22;10548;47.504;8.248;2023-08-06T12:23:28;14.10;99.90
20777;DHT22;10548;47.504;8.248;2023-08-06T12:25:55;14.20;99.90
20777;DHT22;10548;47.504;8.248;2023-08-06T12:30:50;14.10;99.90
20777;DHT22;10548;47.504;8.248;2023-08-06T12:33:18;14.40;99.90
20777;DHT22;10548;47.504;8.248;2023-08-06T12:35:45;14.50;99.90
20777;DHT22;10548;47.504;8.248;2023-08-06T12:38:12;14.60;99.90
20777;DHT22;10548;47.504;8.248;2023-08-06T12:40:40;14.80;99.90
20777;DHT22;10548;47.504;8.248;2023-08-06T12:43:09;15.00;99.90
20777;DHT22;10548;47.504;8.248;2023-08-06T12:45:37;14.90;99.90
20777;DHT22;10548;47.504;8.248;2023-08-06T12:48:04;14.90;99.90
20777;DHT22;10548;47.504;8.248;2023-08-06T12:50:31;14.90;99.90
20777;DHT22;10548;47.504;8.248;2023-08-06T12:53:00;14.90;99.90
20777;DHT22;10548;47.504;8.248;2023-08-06T12:55:27;14.80;99.90
20777;DHT22;10548;47.504;8.248;2023-08-06T12:57:58;14.70;99.90
20777;DHT22;10548;47.504;8.248;2023-08-06T13:02:54;14.40;99.90
20777;DHT22;10548;47.504;8.248;2023-08-06T13:05:21;14.40;99.90
20777;DHT22;10548;47.504;8.248;2023-08-06T13:07:49;14.30;99.90
20777;DHT22;10548;47.504;8.248;2023-08-06T13:10:16;14.20;99.90
20777;DHT22;10548;47.504;8.248;2023-08-06T13:12:44;14.10;99.90
20777;DHT22;10548;47.504;8.248;2023-08-06T13:15:11;14.10;99.90
20777;DHT22;10548;47.504;8.248;2023-08-06T13:17:38;14.00;99.90
20777;DHT22;10548;47.504;8.248;2023-08-06T13:20:06;13.80;99.90
20777;DHT22;10548;47.504;8.248;2023-08-06T13:22:33;13.80;99.90
20777;DHT22;10548;47.504;8.248;2023-08-06T13:25:00;14.00;99.90
20777;DHT22;10548;47.504;8.248;2023-08-06T13:27:27;14.40;99.90
20777;DHT22;10548;47.504;8.248;2023-08-06T13:29:55;14.70;99.90
20777;DHT22;10548;47.504;8.248;2023-08-06T13:32:22;14.60;99.90
20777;DHT22;10548;47.504;8.248;2023-08-06T13:34:49;14.60;99.90
20777;DHT22;10548;47.504;8.248;2023-08-06T13:37:16;15.30;99.90
20777;DHT22;10548;47.504;8.248;2023-08-06T13:39:43;15.40;99.90
20777;DHT22;10548;47.504;8.248;2023-08-06T13:42:10;15.40;99.90
20777;DHT22;10548;47.504;8.248;2023-08-06T13:44:37;15.50;99.90
20777;DHT22;10548;47.504;8.248;2023-08-06T14:26:49;15.00;99.90
20777;DHT22;10548;47.504;8.248;2023-08-06T14:29:16;15.70;99.90
20777;DHT22;10548;47.504;8.248;2023-08-06T14:31:43;15.70;99.90
20777;DHT22;10548;47.504;8.248;2023-08-06T14:34:11;15.50;99.90
20777;DHT22;10548;47.504;8.248;2023-08-06T15:11:02;16.10;99.90
20777;DHT22;10548;47.504;8.248;2023-08-06T15:13:30;15.50;99.90
20777;DHT22;10548;47.504;8.248;2023-08-06T15:15:57;16.10;99.90
20777;DHT22;10548;47.504;8.248;2023-08-06T15:18:24;16.10;99.90
20777;DHT22;10548;47.504;8.248;2023-08-06T15:20:51;16.20;99.90
20777;DHT22;10548;47.504;8.248;2023-08-06T15:45:34;16.70;99.90
20777;DHT22;10548;47.504;8.248;2023-08-06T15:52:56;16.80;99.90
20777;DHT22;10548;47.504;8.248;2023-08-06T15:55:23;16.70;99.90
20777;DHT22;10548;47.504;8.248;2023-08-06T15:57:51;17.30;99.90
20777;DHT22;10548;47.504;8.248;2023-08-06T16:00:18;17.20;99.90
20777;DHT22;10548;47.504;8.248;2023-08-06T16:02:45;17.40;99.90
20777;DHT22;10548;47.504;8.248;2023-08-06T16:05:13;16.70;99.90
20777;DHT22;10548;47.504;8.248;2023-08-06T16:07:40;17.00;99.90
20777;DHT22;10548;47.504;8.248;2023-08-06T16:10:08;16.80;99.90
20777;DHT22;10548;47.504;8.248;2023-08-06T16:12:35;17.00;99.90
20777;DHT22;10548;47.504;8.248;2023-08-06T16:15:03;17.40;99.90
20777;DHT22;10548;47.504;8.248;2023-08-06T16:17:30;17.50;99.90
20777;DHT22;10548;47.504;8.248;2023-08-06T16:19:57;17.40;99.90
20777;DHT22;10548;47.504;8.248;2023-08-06T16:22:25;16.40;99.50
20777;DHT22;10548;47.504;8.248;2023-08-06T16:24:52;16.20;99.90
20777;DHT22;10548;47.504;8.248;2023-08-06T16:27:19;16.20;99.90
20777;DHT22;10548;47.504;8.248;2023-08-06T16:29:46;16.40;99.90
20777;DHT22;10548;47.504;8.248;2023-08-06T16:32:15;16.30;99.90
20777;DHT22;10548;47.504;8.248;2023-08-06T16:34:42;16.60;99.90
20777;DHT22;10548;47.504;8.248;2023-08-06T16:37:09;16.40;99.90
20777;DHT22;10548;47.504;8.248;2023-08-06T16:39:37;16.00;99.90
20777;DHT22;10548;47.504;8.248;2023-08-06T16:42:04;15.80;99.90
20777;DHT22;10548;47.504;8.248;2023-08-06T16:44:33;16.20;99.90
20777;DHT22;10548;47.504;8.248;2023-08-06T16:47:00;16.20;99.90
20777;DHT22;10548;47.504;8.248;2023-08-06T16:49:28;16.40;99.90
20777;DHT22;10548;47.504;8.248;2023-08-06T16:51:55;16.20;99.90
20777;DHT22;10548;47.504;8.248;2023-08-06T16:54:22;16.60;99.90
20777;DHT22;10548;47.504;8.248;2023-08-06T16:56:49;17.00;99.50
20777;DHT22;10548;47.504;8.248;2023-08-06T16:59:17;17.40;99.90
20777;DHT22;10548;47.504;8.248;2023-08-06T17:01:44;17.10;99.90
20777;DHT22;10548;47.504;8.248;2023-08-06T17:04:11;17.40;99.90
20777;DHT22;10548;47.504;8.248;2023-08-06T17:06:38;17.60;98.50
20777;DHT22;10548;47.504;8.248;2023-08-06T17:09:05;17.70;95.20
20777;DHT22;10548;47.504;8.248;2023-08-06T17:11:32;17.00;98.30
20777;DHT22;10548;47.504;8.248;2023-08-06T17:13:59;17.50;97.50
20777;DHT22;10548;47.504;8.248;2023-08-06T17:16:27;17.20;98.90
20777;DHT22;10548;47.504;8.248;2023-08-06T17:18:54;16.80;99.90
20777;DHT22;10548;47.504;8.248;2023-08-06T17:21:21;16.60;99.90
20777;DHT22;10548;47.504;8.248;2023-08-06T17:23:48;16.80;99.70
20777;DHT22;10548;47.504;8.248;2023-08-06T17:26:16;16.60;97.50
20777;DHT22;10548;47.504;8.248;2023-08-06T17:28:44;16.50;99.90
20777;DHT22;10548;47.504;8.248;2023-08-06T17:31:11;16.50;99.90
20777;DHT22;10548;47.504;8.248;2023-08-06T17:33:38;16.00;99.90
20777;DHT22;10548;47.504;8.248;2023-08-06T17:36:05;15.60;99.90
20777;DHT22;10548;47.504;8.248;2023-08-06T17:38:32;15.40;99.90
20777;DHT22;10548;47.504;8.248;2023-08-06T17:40:59;15.50;99.90
20777;DHT22;10548;47.504;8.248;2023-08-06T17:43:29;15.80;99.90
20777;DHT22;10548;47.504;8.248;2023-08-06T17:45:56;16.00;99.10
20777;DHT22;10548;47.504;8.248;2023-08-06T17:48:23;15.90;99.90
20777;DHT22;10548;47.504;8.248;2023-08-06T17:50:51;15.60;99.90
20777;DHT22;10548;47.504;8.248;2023-08-06T17:53:18;15.60;99.90
20777;DHT22;10548;47.504;8.248;2023-08-06T17:55:45;15.50;99.90
20777;DHT22;10548;47.504;8.248;2023-08-06T17:58:12;15.20;99.90
20777;DHT22;10548;47.504;8.248;2023-08-06T18:00:39;15.20;99.90
20777;DHT22;10548;47.504;8.248;2023-08-06T18:03:06;15.10;99.90
20777;DHT22;10548;47.504;8.248;2023-08-06T18:05:33;15.30;99.80
20777;DHT22;10548;47.504;8.248;2023-08-06T18:08:02;15.30;99.90
20777;DHT22;10548;47.504;8.248;2023-08-06T18:10:29;15.30;99.90
20777;DHT22;10548;47.504;8.248;2023-08-06T18:12:56;15.00;99.90
20777;DHT22;10548;47.504;8.248;2023-08-06T18:15:23;14.90;99.90
20777;DHT22;10548;47.504;8.248;2023-08-06T18:17:50;14.70;99.90
20777;DHT22;10548;47.504;8.248;2023-08-06T18:20:17;14.70;99.90
20777;DHT22;10548;47.504;8.248;2023-08-06T18:22:44;14.70;99.90
20777;DHT22;10548;47.504;8.248;2023-08-06T18:25:12;14.70;99.90
20777;DHT22;10548;47.504;8.248;2023-08-06T18:27:39;14.70;99.90
20777;DHT22;10548;47.504;8.248;2023-08-06T18:30:10;14.80;99.90
20777;DHT22;10548;47.504;8.248;2023-08-06T18:32:37;14.80;99.90
20777;DHT22;10548;47.504;8.248;2023-08-06T18:35:05;14.80;99.90
20777;DHT22;10548;47.504;8.248;2023-08-06T18:37:32;14.70;99.90
20777;DHT22;10548;47.504;8.248;2023-08-06T18:40:01;14.40;99.90
20777;DHT22;10548;47.504;8.248;2023-08-06T18:42:29;14.50;99.90
20777;DHT22;10548;47.504;8.248;2023-08-06T18:44:56;14.40;99.90
20777;DHT22;10548;47.504;8.248;2023-08-06T18:47:25;14.40;99.90
20777;DHT22;10548;47.504;8.248;2023-08-06T18:49:52;14.30;99.90
20777;DHT22;10548;47.504;8.248;2023-08-06T18:52:19;14.30;99.90
20777;DHT22;10548;47.504;8.248;2023-08-06T18:54:46;14.20;99.90
20777;DHT22;10548;47.504;8.248;2023-08-06T18:57:14;14.20;99.90
20777;DHT22;10548;47.504;8.248;2023-08-06T18:59:41;14.10;99.90
20777;DHT22;10548;47.504;8.248;2023-08-06T19:02:08;14.20;99.90
20777;DHT22;10548;47.504;8.248;2023-08-06T19:04:35;14.20;99.90
20777;DHT22;10548;47.504;8.248;2023-08-06T19:07:02;14.10;99.90
20777;DHT22;10548;47.504;8.248;2023-08-06T19:09:30;14.00;99.90
20777;DHT22;10548;47.504;8.248;2023-08-06T19:11:57;14.00;99.90
20777;DHT22;10548;47.504;8.248;2023-08-06T19:14:24;14.10;99.90
20777;DHT22;10548;47.504;8.248;2023-08-06T19:16:53;14.10;99.90
20777;DHT22;10548;47.504;8.248;2023-08-06T19:19:23;14.20;99.90
20777;DHT22;10548;47.504;8.248;2023-08-06T19:21:50;14.10;99.90
20777;DHT22;10548;47.504;8.248;2023-08-06T19:24:19;14.20;99.90
20777;DHT22;10548;47.504;8.248;2023-08-06T19:26:46;14.20;99.90
20777;DHT22;10548;47.504;8.248;2023-08-06T19:29:13;14.10;99.90
20777;DHT22;10548;47.504;8.248;2023-08-06T19:31:40;14.30;99.90
20777;DHT22;10548;47.504;8.248;2023-08-06T19:34:21;14.20;99.90
20777;DHT22;10548;47.504;8.248;2023-08-06T19:36:49;14.10;99.90
20777;DHT22;10548;47.504;8.248;2023-08-06T19:39:17;14.00;99.90
20777;DHT22;10548;47.504;8.248;2023-08-06T19:41:44;14.00;99.90